createdAt,value
2023-03-20T00:02:19.121Z,11.27
2023-03-20T00:04:45.734Z,11.80
2023-03-20T00:07:12.658Z,11.07
2023-03-20T00:09:39.495Z,12.03
2023-03-20T00:12:06.272Z,11.00
2023-03-20T00:14:34.491Z,12.50
2023-03-20T00:17:01.966Z,11.53
2023-03-20T00:19:30.946Z,11.77
2023-03-20T00:21:57.662Z,12.80
2023-03-20T00:24:24.762Z,11.80
2023-03-20T00:26:52.962Z,12.93
2023-03-20T00:29:27.576Z,13.00
2023-03-20T00:31:55.055Z,12.03
2023-03-20T00:34:24.218Z,12.80
2023-03-20T00:36:51.679Z,13.80
2023-03-20T00:39:18.185Z,12.97
2023-03-20T00:41:51.591Z,13.70
2023-03-20T00:44:34.147Z,13.77
2023-03-20T00:47:13.173Z,13.37
2023-03-20T00:49:40.262Z,13.50
2023-03-20T00:52:06.699Z,14.10
2023-03-20T00:54:33.092Z,14.23
2023-03-20T00:57:22.502Z,14.77
2023-03-20T01:00:14.531Z,14.67
2023-03-20T01:02:41.069Z,14.10
2023-03-20T01:05:08.180Z,14.80
2023-03-20T01:07:34.557Z,14.63
2023-03-20T01:10:01.157Z,13.60
2023-03-20T01:12:28.213Z,14.70
2023-03-20T01:14:58.627Z,15.27
2023-03-20T01:17:27.352Z,14.70
2023-03-20T01:19:53.960Z,13.53
2023-03-20T01:22:20.475Z,12.80
2023-03-20T01:24:47.337Z,12.90
2023-03-20T01:27:15.812Z,12.83
2023-03-20T01:29:42.216Z,12.80
2023-03-20T01:32:12.548Z,13.53
2023-03-20T01:34:39.087Z,12.23
2023-03-20T01:37:12.710Z,12.83
2023-03-20T01:39:39.085Z,12.73
2023-03-20T01:42:07.037Z,13.23
2023-03-20T01:44:35.774Z,13.97
2023-03-20T01:47:04.510Z,14.27
2023-03-20T01:50:01.762Z,14.03
2023-03-20T01:52:28.344Z,14.17
2023-03-20T01:54:54.889Z,15.00
2023-03-20T01:57:24.915Z,14.87
2023-03-20T02:00:03.181Z,15.00
2023-03-20T02:02:32.127Z,14.30
2023-03-20T02:05:03.937Z,14.57
2023-03-20T02:07:33.065Z,14.63
2023-03-20T02:09:59.691Z,14.77
2023-03-20T02:12:26.394Z,14.43
2023-03-20T02:14:53.163Z,14.27
2023-03-20T02:17:21.290Z,14.50
2023-03-20T02:20:09.337Z,14.30
2023-03-20T02:23:00.730Z,15.00
2023-03-20T02:25:45.780Z,14.50
2023-03-20T02:28:34.181Z,13.83
2023-03-20T02:31:17.708Z,14.37
2023-03-20T02:34:12.253Z,14.37
2023-03-20T02:37:16.612Z,13.03
2023-03-20T02:40:05.950Z,13.63
2023-03-20T02:42:47.495Z,13.20
2023-03-20T02:45:18.975Z,13.80
2023-03-20T02:47:57.334Z,14.53
2023-03-20T02:50:42.965Z,13.47
2023-03-20T02:53:12.807Z,14.23
2023-03-20T02:55:49.372Z,15.50
2023-03-20T02:58:22.546Z,14.50
2023-03-20T03:01:04.221Z,13.77
2023-03-20T03:03:38.339Z,14.77
2023-03-20T03:06:17.722Z,13.73
2023-03-20T03:08:49.673Z,14.70
2023-03-20T03:11:17.536Z,14.17
2023-03-20T03:13:48.829Z,14.17
2023-03-20T03:16:26.624Z,14.43
2023-03-20T03:19:06.706Z,13.60
2023-03-20T03:21:35.059Z,13.63
2023-03-20T03:24:02.619Z,13.67
2023-03-20T03:26:35.307Z,14.37
2023-03-20T03:29:12.569Z,13.63
2023-03-20T03:31:39.639Z,13.93
2023-03-20T03:34:06.453Z,13.00
2023-03-20T03:36:54.503Z,13.23
2023-03-20T03:39:36.923Z,14.33
2023-03-20T03:42:28.010Z,13.97
2023-03-20T03:45:17.311Z,13.83
2023-03-20T03:47:50.300Z,14.50
2023-03-20T03:50:21.899Z,14.17
2023-03-20T03:52:50.398Z,14.00
2023-03-20T03:55:23.895Z,14.17
2023-03-20T03:57:56.474Z,14.67
2023-03-20T04:00:25.987Z,14.63
2023-03-20T04:02:56.139Z,14.77
2023-03-20T04:05:27.663Z,14.50
2023-03-20T04:07:56.400Z,15.03
2023-03-20T04:10:22.729Z,14.13
2023-03-20T04:12:49.104Z,14.33
2023-03-20T04:15:16.518Z,14.33
2023-03-20T04:17:44.458Z,14.97
2023-03-20T04:20:12.276Z,13.83
2023-03-20T04:22:38.804Z,13.70
2023-03-20T04:25:07.098Z,14.77
2023-03-20T04:27:33.516Z,13.77
2023-03-20T04:29:59.900Z,14.20
2023-03-20T04:32:26.341Z,13.33
2023-03-20T04:34:53.434Z,13.03
2023-03-20T04:37:19.891Z,12.47
2023-03-20T04:39:46.397Z,13.37
2023-03-20T04:42:12.791Z,14.53
2023-03-20T04:44:39.130Z,15.13
2023-03-20T04:47:05.570Z,16.07
2023-03-20T04:49:31.942Z,16.33
2023-03-20T04:51:58.317Z,15.50
2023-03-20T04:54:25.208Z,16.10
2023-03-20T04:56:51.674Z,15.13
2023-03-20T04:59:18.270Z,13.90
2023-03-20T05:01:44.640Z,14.60
2023-03-20T05:04:11.156Z,13.37
2023-03-20T05:06:37.556Z,12.70
2023-03-20T05:09:04.165Z,11.83
2023-03-20T05:11:30.600Z,11.50
2023-03-20T05:13:57.222Z,11.73
2023-03-20T05:16:23.873Z,11.83
2023-03-20T05:18:50.452Z,12.00
2023-03-20T05:21:16.881Z,12.23
2023-03-20T05:23:43.355Z,11.60
2023-03-20T05:26:09.674Z,11.67
2023-03-20T05:28:37.345Z,11.10
2023-03-20T05:31:04.115Z,10.93
2023-03-20T05:33:31.686Z,11.73
2023-03-20T05:35:58.159Z,10.47
2023-03-20T05:38:25.742Z,11.23
2023-03-20T05:40:59.194Z,10.93
2023-03-20T05:43:25.985Z,10.80
2023-03-20T05:45:53.327Z,10.33
2023-03-20T05:48:19.730Z,10.57
2023-03-20T05:50:46.282Z,10.37
2023-03-20T05:53:12.738Z,10.50
2023-03-20T05:55:39.114Z,10.13
2023-03-20T05:58:06.201Z,10.77
2023-03-20T06:00:32.623Z,8.93
2023-03-20T06:02:59.260Z,9.37
2023-03-20T06:05:26.069Z,9.87
2023-03-20T06:07:52.462Z,8.60
2023-03-20T06:10:20.728Z,9.80
2023-03-20T06:12:47.142Z,9.83
2023-03-20T06:15:13.530Z,10.20
2023-03-20T06:17:39.990Z,9.73
2023-03-20T06:20:07.303Z,9.73
2023-03-20T06:22:33.821Z,10.57
2023-03-20T06:25:01.300Z,9.37
2023-03-20T06:27:27.712Z,9.73
2023-03-20T06:29:54.089Z,10.20
2023-03-20T06:32:20.828Z,10.40
2023-03-20T06:34:47.725Z,11.33
2023-03-20T06:37:14.070Z,10.80
2023-03-20T06:39:41.662Z,11.17
2023-03-20T06:42:08.471Z,11.30
2023-03-20T06:44:34.772Z,11.23
2023-03-20T06:47:01.152Z,11.00
2023-03-20T06:49:28.084Z,11.37
2023-03-20T06:51:54.534Z,10.77
2023-03-20T06:54:21.027Z,11.47
2023-03-20T06:56:47.445Z,11.13
2023-03-20T06:59:13.945Z,11.73
2023-03-20T07:01:40.459Z,11.17
2023-03-20T07:04:07.541Z,11.63
2023-03-20T07:06:34.072Z,11.80
2023-03-20T07:09:01.384Z,11.20
2023-03-20T07:11:28.492Z,12.40
2023-03-20T07:13:54.887Z,10.93
2023-03-20T07:16:21.648Z,12.10
2023-03-20T07:18:48.074Z,12.40
2023-03-20T07:21:20.286Z,12.30
2023-03-20T07:23:46.949Z,13.33
2023-03-20T07:26:13.739Z,13.23
2023-03-20T07:28:40.202Z,11.27
2023-03-20T07:31:06.732Z,12.07
2023-03-20T07:33:33.170Z,10.23
2023-03-20T07:35:59.677Z,10.23
2023-03-20T07:38:26.108Z,10.70
2023-03-20T07:40:54.598Z,11.03
2023-03-20T07:43:21.195Z,10.23
2023-03-20T07:45:47.666Z,10.00
2023-03-20T07:48:14.032Z,9.23
2023-03-20T07:50:40.484Z,8.23
2023-03-20T07:53:07.852Z,8.63
2023-03-20T07:55:34.467Z,7.67
2023-03-20T07:58:01.076Z,7.57
2023-03-20T08:00:28.348Z,7.00
2023-03-20T08:02:56.931Z,7.03
2023-03-20T08:05:26.819Z,5.77
2023-03-20T08:07:53.472Z,5.73
2023-03-20T08:10:19.922Z,6.23
2023-03-20T08:12:46.504Z,6.37
2023-03-20T08:15:13.039Z,5.10
2023-03-20T08:17:43.762Z,5.27
2023-03-20T08:20:11.100Z,5.50
2023-03-20T08:22:37.455Z,5.27
2023-03-20T08:25:04.123Z,5.50
2023-03-20T08:27:31.054Z,5.03
2023-03-20T08:29:57.411Z,5.03
2023-03-20T08:32:23.815Z,4.60
2023-03-20T08:34:50.242Z,5.00
2023-03-20T08:37:16.845Z,4.90
2023-03-20T08:39:43.307Z,4.93
2023-03-20T08:42:09.706Z,4.73
2023-03-20T08:44:36.216Z,4.57
2023-03-20T08:47:03.459Z,5.10
2023-03-20T08:49:29.900Z,4.87
2023-03-20T08:51:56.294Z,4.53
2023-03-20T08:54:22.868Z,5.00
2023-03-20T08:56:49.276Z,5.37
2023-03-20T08:59:15.610Z,6.00
2023-03-20T09:01:49.308Z,5.97
2023-03-20T09:04:16.985Z,5.77
2023-03-20T09:06:43.312Z,6.20
2023-03-20T09:09:09.848Z,6.17
2023-03-20T09:11:36.608Z,6.27
2023-03-20T09:14:02.966Z,5.83
2023-03-20T09:16:29.462Z,6.10
2023-03-20T09:18:56.223Z,5.80
2023-03-20T09:21:22.657Z,5.70
2023-03-20T09:23:49.025Z,6.30
2023-03-20T09:26:15.578Z,6.67
2023-03-20T09:28:42.119Z,6.33
2023-03-20T09:31:08.492Z,7.03
2023-03-20T09:33:35.013Z,5.73
2023-03-20T09:36:01.925Z,7.07
2023-03-20T09:38:28.688Z,6.10
2023-03-20T09:40:58.703Z,6.73
2023-03-20T09:43:56.386Z,6.67
2023-03-20T09:46:28.793Z,6.40
2023-03-20T09:49:07.701Z,6.77
2023-03-20T09:51:56.339Z,6.50
2023-03-20T09:54:53.645Z,5.90
2023-03-20T09:57:32.319Z,6.57
2023-03-20T10:00:03.389Z,6.00
2023-03-20T10:02:50.793Z,6.20
2023-03-20T10:05:23.277Z,5.87
2023-03-20T10:07:49.767Z,5.80
2023-03-20T10:10:20.217Z,6.20
2023-03-20T10:13:09.455Z,5.90
2023-03-20T10:16:03.274Z,5.83
2023-03-20T10:18:33.944Z,5.20
2023-03-20T10:21:15.359Z,5.10
2023-03-20T10:23:54.437Z,4.80
2023-03-20T10:26:23.661Z,4.60
2023-03-20T10:29:15.382Z,4.57
2023-03-20T10:32:03.142Z,4.80
2023-03-20T10:34:40.450Z,5.10
2023-03-20T10:37:31.638Z,5.13
2023-03-20T10:40:39.348Z,4.83
2023-03-20T10:43:17.136Z,4.80
2023-03-20T10:45:48.426Z,4.70
2023-03-20T10:48:31.129Z,4.30
2023-03-20T10:51:02.003Z,3.20
2023-03-20T10:53:49.396Z,3.30
2023-03-20T10:56:40.610Z,2.93
2023-03-20T10:59:12.363Z,2.63
2023-03-20T11:01:38.668Z,2.43
2023-03-20T11:04:06.178Z,2.03
2023-03-20T11:06:41.597Z,2.23
2023-03-20T11:09:17.697Z,2.07
2023-03-20T11:11:46.187Z,2.40
2023-03-20T11:14:18.934Z,2.63
2023-03-20T11:16:56.553Z,2.37
2023-03-20T11:19:23.918Z,2.60
2023-03-20T11:21:55.989Z,2.43
2023-03-20T11:24:41.943Z,2.60
2023-03-20T11:27:15.990Z,3.13
2023-03-20T11:29:45.738Z,2.50
2023-03-20T11:32:26.952Z,2.93
2023-03-20T11:34:57.434Z,2.90
2023-03-20T11:37:28.946Z,3.00
2023-03-20T11:40:08.946Z,3.00
2023-03-20T11:42:37.069Z,3.00
2023-03-20T11:45:07.013Z,2.73
2023-03-20T11:47:36.068Z,2.83
2023-03-20T11:50:06.359Z,2.50
2023-03-20T11:52:38.820Z,3.00
2023-03-20T11:55:23.301Z,2.83
2023-03-20T11:57:49.706Z,2.53
2023-03-20T12:00:36.067Z,2.90
2023-03-20T12:03:03.689Z,2.70
2023-03-20T12:05:41.936Z,2.63
2023-03-20T12:08:27.773Z,2.10
2023-03-20T12:10:59.720Z,1.80
2023-03-20T12:13:33.207Z,2.00
2023-03-20T12:16:04.705Z,1.90
2023-03-20T12:18:36.091Z,2.40
2023-03-20T12:21:28.826Z,2.50
2023-03-20T12:24:04.501Z,2.77
2023-03-20T12:26:34.730Z,2.53
2023-03-20T12:29:07.954Z,2.63
2023-03-20T12:31:50.117Z,2.30
2023-03-20T12:34:41.451Z,2.40
2023-03-20T12:37:12.089Z,2.73
2023-03-20T12:39:46.023Z,2.80
2023-03-20T12:42:21.468Z,2.70
2023-03-20T12:44:58.784Z,2.77
2023-03-20T12:47:52.333Z,2.90
2023-03-20T12:50:36.888Z,3.17
2023-03-20T12:53:17.413Z,3.27
2023-03-20T12:56:02.239Z,3.03
2023-03-20T12:58:51.925Z,3.67
2023-03-20T13:01:45.634Z,3.10
2023-03-20T13:04:43.213Z,2.77
2023-03-20T13:07:21.700Z,3.03
2023-03-20T13:10:21.461Z,2.77
2023-03-20T13:13:06.377Z,2.70
2023-03-20T13:15:42.142Z,2.63
2023-03-20T13:18:11.665Z,2.30
2023-03-20T13:20:51.481Z,2.30
2023-03-20T13:23:36.165Z,2.70
2023-03-20T13:26:50.948Z,2.77
2023-03-20T13:29:39.007Z,2.00
2023-03-20T13:32:36.254Z,2.00
2023-03-20T13:35:42.204Z,2.37
2023-03-20T13:38:21.622Z,2.30
2023-03-20T13:40:56.278Z,2.43
2023-03-20T13:43:31.920Z,2.07
2023-03-20T13:46:07.137Z,2.33
2023-03-20T13:48:37.847Z,1.97
2023-03-20T13:51:19.536Z,2.30
2023-03-20T13:54:18.386Z,2.20
2023-03-20T13:56:44.710Z,1.90
2023-03-20T13:59:36.166Z,1.97
2023-03-20T14:02:26.950Z,1.90
2023-03-20T14:05:04.104Z,2.00
2023-03-20T14:07:36.839Z,2.10
2023-03-20T14:10:21.501Z,2.13
2023-03-20T14:12:50.227Z,2.03
2023-03-20T14:15:19.549Z,1.73
2023-03-20T14:17:48.760Z,1.70
2023-03-20T14:20:36.970Z,2.10
2023-03-20T14:23:04.877Z,3.10
2023-03-20T14:25:41.939Z,1.83
2023-03-20T14:28:11.609Z,2.20
2023-03-20T14:30:39.930Z,2.00
2023-03-20T14:33:07.716Z,2.10
2023-03-20T14:35:39.540Z,1.70
2023-03-20T14:38:31.018Z,1.87
2023-03-20T14:41:11.677Z,2.10
2023-03-20T14:44:00.024Z,2.10
2023-03-20T14:46:26.337Z,2.37
2023-03-20T14:48:54.636Z,2.20
2023-03-20T14:51:39.387Z,2.20
2023-03-20T14:54:20.999Z,2.30
2023-03-20T14:56:52.030Z,2.50
2023-03-20T14:59:22.633Z,2.30
2023-03-20T15:02:26.267Z,2.60
2023-03-20T15:04:53.095Z,2.10
2023-03-20T15:07:25.308Z,2.40
2023-03-20T15:09:56.657Z,2.67
2023-03-20T15:12:28.884Z,2.13
2023-03-20T15:15:03.955Z,2.47
2023-03-20T15:17:47.498Z,2.07
2023-03-20T15:20:24.772Z,2.23
2023-03-20T15:22:58.000Z,2.13
2023-03-20T15:25:45.172Z,2.40
2023-03-20T15:28:22.613Z,2.10
2023-03-20T15:30:51.397Z,2.03
2023-03-20T15:33:26.419Z,2.57
2023-03-20T15:35:53.242Z,2.57
2023-03-20T15:38:20.821Z,2.23
2023-03-20T15:40:51.391Z,2.40
2023-03-20T15:43:24.290Z,2.30
2023-03-20T15:46:02.859Z,2.20
2023-03-20T15:48:36.642Z,2.43
2023-03-20T15:51:04.980Z,2.13
2023-03-20T15:53:35.724Z,3.10
2023-03-20T15:56:17.190Z,3.80
2023-03-20T15:58:46.211Z,2.40
2023-03-20T16:01:18.557Z,2.33
2023-03-20T16:03:45.122Z,2.30
2023-03-20T16:06:16.324Z,2.47
2023-03-20T16:08:42.743Z,2.73
2023-03-20T16:11:15.424Z,2.50
2023-03-20T16:13:46.434Z,2.60
2023-03-20T16:16:18.944Z,2.50
2023-03-20T16:18:48.017Z,2.73
2023-03-20T16:21:26.145Z,2.60
2023-03-20T16:23:55.833Z,2.77
2023-03-20T16:26:24.378Z,3.10
2023-03-20T16:28:56.469Z,2.30
2023-03-20T16:31:28.683Z,2.47
2023-03-20T16:33:59.856Z,2.47
2023-03-20T16:36:30.545Z,3.00
2023-03-20T16:39:17.127Z,2.60
2023-03-20T16:41:45.532Z,2.60
2023-03-20T16:44:23.285Z,2.53
2023-03-20T16:47:01.074Z,2.20
2023-03-20T16:49:29.599Z,2.57
2023-03-20T16:51:59.659Z,2.53
2023-03-20T16:54:30.644Z,2.60
2023-03-20T16:56:57.672Z,2.50
2023-03-20T16:59:25.583Z,2.33
2023-03-20T17:01:54.104Z,2.40
2023-03-20T17:04:42.490Z,2.50
2023-03-20T17:07:18.342Z,2.63
2023-03-20T17:09:53.630Z,2.67
2023-03-20T17:12:20.055Z,2.60
2023-03-20T17:14:46.536Z,2.30
2023-03-20T17:17:19.544Z,2.50
2023-03-20T17:19:46.944Z,2.53
2023-03-20T17:22:15.834Z,2.70
2023-03-20T17:24:42.472Z,2.70
2023-03-20T17:27:12.015Z,2.80
2023-03-20T17:29:39.451Z,5.13
2023-03-20T17:32:14.276Z,3.60
2023-03-20T17:34:41.088Z,2.67
2023-03-20T17:37:13.447Z,3.13
2023-03-20T17:39:40.457Z,3.10
2023-03-20T17:42:24.463Z,3.30
2023-03-20T17:44:50.863Z,2.90
2023-03-20T17:47:20.937Z,3.30
2023-03-20T17:49:47.760Z,2.60
2023-03-20T17:52:19.801Z,2.53
2023-03-20T17:54:46.955Z,2.67
2023-03-20T17:57:22.456Z,3.03
2023-03-20T17:59:49.999Z,2.90
2023-03-20T18:02:18.192Z,2.80
2023-03-20T18:04:45.777Z,2.97
2023-03-20T18:07:12.677Z,3.17
2023-03-20T18:09:43.563Z,2.90
2023-03-20T18:12:14.343Z,2.43
2023-03-20T18:14:42.172Z,2.70
2023-03-20T18:17:10.335Z,3.13
2023-03-20T18:19:36.713Z,2.50
2023-03-20T18:22:04.176Z,2.57
2023-03-20T18:24:30.882Z,2.73
2023-03-20T18:26:57.382Z,2.40
2023-03-20T18:29:23.728Z,2.27
2023-03-20T18:31:50.392Z,2.33
2023-03-20T18:34:17.148Z,2.23
2023-03-20T18:36:45.573Z,2.10
2023-03-20T18:39:19.831Z,2.43
2023-03-20T18:41:46.436Z,2.20
2023-03-20T18:44:13.326Z,2.40
2023-03-20T18:46:40.394Z,2.73
2023-03-20T18:49:07.066Z,2.47
2023-03-20T18:51:33.562Z,2.17
2023-03-20T18:54:00.155Z,2.47
2023-03-20T18:56:28.242Z,2.00
2023-03-20T18:58:54.706Z,2.10
2023-03-20T19:01:21.449Z,3.90
2023-03-20T19:03:48.152Z,2.27
2023-03-20T19:06:20.514Z,2.93
2023-03-20T19:08:48.760Z,4.10
2023-03-20T19:11:17.889Z,4.57
2023-03-20T19:13:49.468Z,4.30
2023-03-20T19:16:37.862Z,3.70
2023-03-20T19:19:06.242Z,3.40
2023-03-20T19:21:34.392Z,3.00
2023-03-20T19:24:04.588Z,2.70
2023-03-20T19:26:32.524Z,2.80
2023-03-20T19:29:01.178Z,2.90
2023-03-20T19:31:28.489Z,3.13
2023-03-20T19:33:56.570Z,3.97
2023-03-20T19:36:27.274Z,3.43
2023-03-20T19:38:54.673Z,4.10
2023-03-20T19:41:21.291Z,3.17
2023-03-20T19:43:52.865Z,4.10
2023-03-20T19:46:38.258Z,4.57
2023-03-20T19:49:06.436Z,5.33
2023-03-20T19:51:33.149Z,4.07
2023-03-20T19:53:59.606Z,4.03
2023-03-20T19:56:27.037Z,3.30
2023-03-20T19:58:53.504Z,3.47
2023-03-20T20:01:23.420Z,2.77
2023-03-20T20:03:53.368Z,2.97
2023-03-20T20:06:22.186Z,3.57
2023-03-20T20:08:50.436Z,3.47
2023-03-20T20:11:18.476Z,3.70
2023-03-20T20:14:04.718Z,3.20
2023-03-20T20:16:32.728Z,3.27
2023-03-20T20:18:59.172Z,4.10
2023-03-20T20:22:16.855Z,5.10
2023-03-20T20:24:12.374Z,6.17
2023-03-20T20:26:45.254Z,5.70
2023-03-20T20:29:15.821Z,7.03
2023-03-20T20:31:43.983Z,7.90
2023-03-20T20:39:47.615Z,10.87
2023-03-20T20:42:14.544Z,7.03
2023-03-20T20:44:40.957Z,4.70
2023-03-20T20:47:08.162Z,5.53
2023-03-20T20:49:35.007Z,5.20
2023-03-20T20:52:01.478Z,3.60
2023-03-20T20:54:28.841Z,3.50
2023-03-20T20:56:56.184Z,3.50
2023-03-20T20:59:23.182Z,3.37
2023-03-20T21:01:50.577Z,3.60
2023-03-20T21:04:17.146Z,3.37
2023-03-20T21:07:08.168Z,4.00
2023-03-20T21:09:30.202Z,3.43
2023-03-20T21:11:56.677Z,3.40
2023-03-20T21:14:23.248Z,3.53
2023-03-20T21:16:50.273Z,3.00
2023-03-20T21:19:16.717Z,2.90
2023-03-20T21:21:43.121Z,3.43
2023-03-20T21:24:30.547Z,4.10
2023-03-20T21:27:03.064Z,4.93
2023-03-20T21:29:29.508Z,5.30
2023-03-20T21:31:56.096Z,4.47
2023-03-20T21:34:22.757Z,4.70
2023-03-20T21:36:51.368Z,3.67
2023-03-20T21:39:18.628Z,4.20
2023-03-20T21:41:45.986Z,3.13
2023-03-20T21:44:17.726Z,3.20
2023-03-20T22:04:00.531Z,3.83
2023-03-20T22:31:55.237Z,2.77
2023-03-20T22:34:46.121Z,2.90
2023-03-20T22:45:10.633Z,2.60
2023-03-20T22:47:37.611Z,2.53
2023-03-20T22:50:05.281Z,2.80
2023-03-20T22:52:47.744Z,2.80
2023-03-20T22:55:16.510Z,5.37
2023-03-20T22:57:52.847Z,5.33
2023-03-20T23:00:27.025Z,3.30
2023-03-20T23:02:57.430Z,3.00
2023-03-20T23:05:26.984Z,4.03
2023-03-20T23:07:53.319Z,6.17
2023-03-20T23:10:19.678Z,11.30
2023-03-20T23:12:46.064Z,8.57
2023-03-20T23:15:12.648Z,8.53
2023-03-20T23:17:39.012Z,7.93
2023-03-20T23:20:12.320Z,4.07
2023-03-20T23:22:40.542Z,3.10
2023-03-20T23:25:23.941Z,3.93
2023-03-20T23:27:54.591Z,3.00
2023-03-20T23:30:23.380Z,2.60
2023-03-20T23:32:51.578Z,2.27
2023-03-20T23:35:18.619Z,2.80
2023-03-20T23:37:44.979Z,2.50
2023-03-20T23:40:12.030Z,2.70
2023-03-20T23:42:38.454Z,2.57
2023-03-20T23:45:19.269Z,2.73
2023-03-20T23:47:48.025Z,2.23
2023-03-20T23:50:26.397Z,2.60
2023-03-20T23:53:03.439Z,2.70
2023-03-20T23:55:35.562Z,3.03
2023-03-20T23:58:02.394Z,2.57
